sensor_id;sensor_type;location;lat;lon;timestamp;temperature;humidity
9482;DHT22;4779;48.062;11.672;2023-05-07T00:00:37;13.30;99.90
9482;DHT22;4779;48.062;11.672;2023-05-07T00:03:04;13.30;99.90
9482;DHT22;4779;48.062;11.672;2023-05-07T00:05:31;13.30;99.90
9482;DHT22;4779;48.062;11.672;2023-05-07T00:07:57;13.30;99.90
9482;DHT22;4779;48.062;11.672;2023-05-07T00:10:25;13.30;99.90
9482;DHT22;4779;48.062;11.672;2023-05-07T00:12:53;13.30;99.90
9482;DHT22;4779;48.062;11.672;2023-05-07T00:15:20;13.30;99.90
9482;DHT22;4779;48.062;11.672;2023-05-07T00:17:47;13.30;99.90
9482;DHT22;4779;48.062;11.672;2023-05-07T00:20:14;13.30;99.90
9482;DHT22;4779;48.062;11.672;2023-05-07T00:22:41;13.30;99.90
9482;DHT22;4779;48.062;11.672;2023-05-07T00:25:08;13.30;99.90
9482;DHT22;4779;48.062;11.672;2023-05-07T00:27:35;13.20;99.90
9482;DHT22;4779;48.062;11.672;2023-05-07T00:30:05;13.20;99.90
9482;DHT22;4779;48.062;11.672;2023-05-07T00:32:32;13.20;99.90
9482;DHT22;4779;48.062;11.672;2023-05-07T00:34:59;13.20;99.90
9482;DHT22;4779;48.062;11.672;2023-05-07T00:37:26;13.10;99.90
9482;DHT22;4779;48.062;11.672;2023-05-07T00:39:53;13.10;99.90
9482;DHT22;4779;48.062;11.672;2023-05-07T00:42:19;13.10;99.90
9482;DHT22;4779;48.062;11.672;2023-05-07T00:44:47;13.10;99.90
9482;DHT22;4779;48.062;11.672;2023-05-07T00:47:15;13.10;99.90
9482;DHT22;4779;48.062;11.672;2023-05-07T00:49:43;13.20;99.90
9482;DHT22;4779;48.062;11.672;2023-05-07T00:52:13;13.20;99.90
9482;DHT22;4779;48.062;11.672;2023-05-07T00:54:41;13.20;99.90
9482;DHT22;4779;48.062;11.672;2023-05-07T00:57:09;13.10;99.90
9482;DHT22;4779;48.062;11.672;2023-05-07T00:59:37;13.10;99.90
9482;DHT22;4779;48.062;11.672;2023-05-07T01:02:04;13.00;99.90
9482;DHT22;4779;48.062;11.672;2023-05-07T01:04:32;13.10;99.90
9482;DHT22;4779;48.062;11.672;2023-05-07T01:06:59;13.10;99.90
9482;DHT22;4779;48.062;11.672;2023-05-07T01:09:28;13.00;99.90
9482;DHT22;4779;48.062;11.672;2023-05-07T01:11:56;13.00;99.90
9482;DHT22;4779;48.062;11.672;2023-05-07T01:14:24;13.00;99.90
9482;DHT22;4779;48.062;11.672;2023-05-07T01:16:51;13.00;99.90
9482;DHT22;4779;48.062;11.672;2023-05-07T01:19:19;13.00;99.90
9482;DHT22;4779;48.062;11.672;2023-05-07T01:21:48;13.00;99.90
9482;DHT22;4779;48.062;11.672;2023-05-07T01:24:17;12.90;99.90
9482;DHT22;4779;48.062;11.672;2023-05-07T01:26:44;12.90;99.90
9482;DHT22;4779;48.062;11.672;2023-05-07T01:29:11;12.90;99.90
9482;DHT22;4779;48.062;11.672;2023-05-07T01:31:40;12.90;99.90
9482;DHT22;4779;48.062;11.672;2023-05-07T01:34:09;12.90;99.90
9482;DHT22;4779;48.062;11.672;2023-05-07T01:36:38;12.90;99.90
9482;DHT22;4779;48.062;11.672;2023-05-07T01:39:06;12.90;99.90
9482;DHT22;4779;48.062;11.672;2023-05-07T01:41:35;12.80;99.90
9482;DHT22;4779;48.062;11.672;2023-05-07T01:44:03;12.90;99.90
9482;DHT22;4779;48.062;11.672;2023-05-07T01:46:31;12.80;99.90
9482;DHT22;4779;48.062;11.672;2023-05-07T01:48:59;12.80;99.90
9482;DHT22;4779;48.062;11.672;2023-05-07T01:51:26;12.90;99.90
9482;DHT22;4779;48.062;11.672;2023-05-07T01:53:53;12.70;99.90
9482;DHT22;4779;48.062;11.672;2023-05-07T01:56:20;12.60;99.90
9482;DHT22;4779;48.062;11.672;2023-05-07T01:58:49;12.60;99.90
9482;DHT22;4779;48.062;11.672;2023-05-07T02:01:16;12.70;99.90
9482;DHT22;4779;48.062;11.672;2023-05-07T02:03:43;12.70;99.90
9482;DHT22;4779;48.062;11.672;2023-05-07T02:06:10;12.70;99.90
9482;DHT22;4779;48.062;11.672;2023-05-07T02:08:37;12.60;99.90
9482;DHT22;4779;48.062;11.672;2023-05-07T02:11:04;12.60;99.90
9482;DHT22;4779;48.062;11.672;2023-05-07T02:13:32;12.60;99.90
9482;DHT22;4779;48.062;11.672;2023-05-07T02:16:01;12.60;99.90
9482;DHT22;4779;48.062;11.672;2023-05-07T02:18:28;12.60;99.90
9482;DHT22;4779;48.062;11.672;2023-05-07T02:20:55;12.60;99.90
9482;DHT22;4779;48.062;11.672;2023-05-07T02:23:22;12.60;99.90
9482;DHT22;4779;48.062;11.672;2023-05-07T02:25:49;12.60;99.90
9482;DHT22;4779;48.062;11.672;2023-05-07T02:28:16;12.60;99.90
9482;DHT22;4779;48.062;11.672;2023-05-07T02:30:42;12.60;99.90
9482;DHT22;4779;48.062;11.672;2023-05-07T02:33:11;12.60;99.90
9482;DHT22;4779;48.062;11.672;2023-05-07T02:35:38;12.60;99.90
9482;DHT22;4779;48.062;11.672;2023-05-07T02:38:04;12.60;99.90
9482;DHT22;4779;48.062;11.672;2023-05-07T02:40:31;12.50;99.90
9482;DHT22;4779;48.062;11.672;2023-05-07T02:43:00;12.50;99.90
9482;DHT22;4779;48.062;11.672;2023-05-07T02:45:27;12.50;99.90
9482;DHT22;4779;48.062;11.672;2023-05-07T02:47:54;12.50;99.90
9482;DHT22;4779;48.062;11.672;2023-05-07T02:50:22;12.40;99.90
9482;DHT22;4779;48.062;11.672;2023-05-07T02:52:49;12.50;99.90
9482;DHT22;4779;48.062;11.672;2023-05-07T02:55:16;12.50;99.90
9482;DHT22;4779;48.062;11.672;2023-05-07T02:57:44;12.40;99.90
9482;DHT22;4779;48.062;11.672;2023-05-07T03:00:12;12.40;99.90
9482;DHT22;4779;48.062;11.672;2023-05-07T03:02:39;12.30;99.90
9482;DHT22;4779;48.062;11.672;2023-05-07T03:05:07;12.30;99.90
9482;DHT22;4779;48.062;11.672;2023-05-07T03:07:35;12.40;99.90
9482;DHT22;4779;48.062;11.672;2023-05-07T03:10:03;12.40;99.90
9482;DHT22;4779;48.062;11.672;2023-05-07T03:12:30;12.40;99.90
9482;DHT22;4779;48.062;11.672;2023-05-07T03:14:57;12.40;99.90
9482;DHT22;4779;48.062;11.672;2023-05-07T03:17:24;12.40;99.90
9482;DHT22;4779;48.062;11.672;2023-05-07T03:19:51;12.40;99.90
9482;DHT22;4779;48.062;11.672;2023-05-07T03:22:18;12.40;99.90
9482;DHT22;4779;48.062;11.672;2023-05-07T03:24:46;12.40;99.90
9482;DHT22;4779;48.062;11.672;2023-05-07T03:27:13;12.40;99.90
9482;DHT22;4779;48.062;11.672;2023-05-07T03:29:40;12.30;99.90
9482;DHT22;4779;48.062;11.672;2023-05-07T03:32:07;12.20;99.90
9482;DHT22;4779;48.062;11.672;2023-05-07T03:34:33;12.30;99.90
9482;DHT22;4779;48.062;11.672;2023-05-07T03:37:00;12.30;99.90
9482;DHT22;4779;48.062;11.672;2023-05-07T03:39:27;12.30;99.90
9482;DHT22;4779;48.062;11.672;2023-05-07T03:41:56;12.20;99.90
9482;DHT22;4779;48.062;11.672;2023-05-07T03:44:23;12.20;99.90
9482;DHT22;4779;48.062;11.672;2023-05-07T03:46:50;12.20;99.90
9482;DHT22;4779;48.062;11.672;2023-05-07T03:49:17;12.20;99.90
9482;DHT22;4779;48.062;11.672;2023-05-07T03:51:44;12.20;99.90
9482;DHT22;4779;48.062;11.672;2023-05-07T03:54:10;12.20;99.90
9482;DHT22;4779;48.062;11.672;2023-05-07T03:56:37;12.20;99.90
9482;DHT22;4779;48.062;11.672;2023-05-07T03:59:05;12.20;99.90
9482;DHT22;4779;48.062;11.672;2023-05-07T04:01:32;12.20;99.90
9482;DHT22;4779;48.062;11.672;2023-05-07T04:04:01;12.20;99.90
9482;DHT22;4779;48.062;11.672;2023-05-07T04:06:28;12.20;99.90
9482;DHT22;4779;48.062;11.672;2023-05-07T04:08:56;12.20;99.90
9482;DHT22;4779;48.062;11.672;2023-05-07T04:11:23;12.20;99.90
9482;DHT22;4779;48.062;11.672;2023-05-07T04:13:50;12.20;99.90
9482;DHT22;4779;48.062;11.672;2023-05-07T04:16:18;12.20;99.90
9482;DHT22;4779;48.062;11.672;2023-05-07T04:18:45;12.20;99.90
9482;DHT22;4779;48.062;11.672;2023-05-07T04:21:15;12.20;99.90
9482;DHT22;4779;48.062;11.672;2023-05-07T04:23:42;12.10;99.90
9482;DHT22;4779;48.062;11.672;2023-05-07T04:26:09;12.10;99.90
9482;DHT22;4779;48.062;11.672;2023-05-07T04:28:36;12.00;99.90
9482;DHT22;4779;48.062;11.672;2023-05-07T04:31:03;12.00;99.90
9482;DHT22;4779;48.062;11.672;2023-05-07T04:33:32;12.00;99.90
9482;DHT22;4779;48.062;11.672;2023-05-07T04:36:00;12.10;99.90
9482;DHT22;4779;48.062;11.672;2023-05-07T04:38:28;12.20;99.90
9482;DHT22;4779;48.062;11.672;2023-05-07T04:40:55;12.20;99.90
9482;DHT22;4779;48.062;11.672;2023-05-07T04:43:22;12.20;99.90
9482;DHT22;4779;48.062;11.672;2023-05-07T04:45:50;12.30;99.90
9482;DHT22;4779;48.062;11.672;2023-05-07T04:48:17;12.30;99.90
9482;DHT22;4779;48.062;11.672;2023-05-07T04:50:49;12.30;99.90
9482;DHT22;4779;48.062;11.672;2023-05-07T04:53:16;12.40;99.90
9482;DHT22;4779;48.062;11.672;2023-05-07T04:55:43;12.40;99.90
9482;DHT22;4779;48.062;11.672;2023-05-07T04:58:10;12.40;99.90
9482;DHT22;4779;48.062;11.672;2023-05-07T05:00:37;12.50;99.90
9482;DHT22;4779;48.062;11.672;2023-05-07T05:03:06;12.50;99.90
9482;DHT22;4779;48.062;11.672;2023-05-07T05:05:33;12.50;99.90
9482;DHT22;4779;48.062;11.672;2023-05-07T05:08:01;12.40;99.90
9482;DHT22;4779;48.062;11.672;2023-05-07T05:10:28;12.40;99.90
9482;DHT22;4779;48.062;11.672;2023-05-07T05:12:55;12.50;99.90
9482;DHT22;4779;48.062;11.672;2023-05-07T05:15:22;12.40;99.90
9482;DHT22;4779;48.062;11.672;2023-05-07T05:17:49;12.40;99.90
9482;DHT22;4779;48.062;11.672;2023-05-07T05:20:16;12.40;99.90
9482;DHT22;4779;48.062;11.672;2023-05-07T05:22:43;12.50;99.90
9482;DHT22;4779;48.062;11.672;2023-05-07T05:25:11;12.40;99.90
9482;DHT22;4779;48.062;11.672;2023-05-07T05:27:38;12.50;99.90
9482;DHT22;4779;48.062;11.672;2023-05-07T05:30:06;12.50;99.90
9482;DHT22;4779;48.062;11.672;2023-05-07T05:32:33;12.60;99.90
9482;DHT22;4779;48.062;11.672;2023-05-07T05:35:00;12.70;99.90
9482;DHT22;4779;48.062;11.672;2023-05-07T05:37:27;12.70;99.90
9482;DHT22;4779;48.062;11.672;2023-05-07T05:39:55;12.90;99.90
9482;DHT22;4779;48.062;11.672;2023-05-07T05:42:24;12.90;99.90
9482;DHT22;4779;48.062;11.672;2023-05-07T05:44:51;12.90;99.90
9482;DHT22;4779;48.062;11.672;2023-05-07T05:47:17;13.00;99.90
9482;DHT22;4779;48.062;11.672;2023-05-07T05:49:44;13.00;99.90
9482;DHT22;4779;48.062;11.672;2023-05-07T05:52:12;13.10;99.90
9482;DHT22;4779;48.062;11.672;2023-05-07T05:54:39;13.20;99.90
9482;DHT22;4779;48.062;11.672;2023-05-07T05:57:06;13.30;99.90
9482;DHT22;4779;48.062;11.672;2023-05-07T05:59:35;13.40;99.90
9482;DHT22;4779;48.062;11.672;2023-05-07T06:02:02;13.50;99.90
9482;DHT22;4779;48.062;11.672;2023-05-07T06:04:29;13.60;99.90
9482;DHT22;4779;48.062;11.672;2023-05-07T06:06:56;13.70;99.90
9482;DHT22;4779;48.062;11.672;2023-05-07T06:09:22;13.70;99.90
9482;DHT22;4779;48.062;11.672;2023-05-07T06:11:49;13.80;99.90
9482;DHT22;4779;48.062;11.672;2023-05-07T06:14:16;14.00;99.90
9482;DHT22;4779;48.062;11.672;2023-05-07T06:16:45;14.10;99.90
9482;DHT22;4779;48.062;11.672;2023-05-07T06:19:12;14.30;99.90
9482;DHT22;4779;48.062;11.672;2023-05-07T06:21:39;14.50;99.90
9482;DHT22;4779;48.062;11.672;2023-05-07T06:24:07;14.70;99.90
9482;DHT22;4779;48.062;11.672;2023-05-07T06:26:34;14.90;99.90
9482;DHT22;4779;48.062;11.672;2023-05-07T06:29:01;15.00;99.90
9482;DHT22;4779;48.062;11.672;2023-05-07T06:31:30;15.20;99.90
9482;DHT22;4779;48.062;11.672;2023-05-07T06:33:59;15.40;99.90
9482;DHT22;4779;48.062;11.672;2023-05-07T06:36:27;15.60;99.90
9482;DHT22;4779;48.062;11.672;2023-05-07T06:38:54;15.80;99.90
9482;DHT22;4779;48.062;11.672;2023-05-07T06:41:21;15.90;99.90
9482;DHT22;4779;48.062;11.672;2023-05-07T06:43:48;16.00;99.90
9482;DHT22;4779;48.062;11.672;2023-05-07T06:46:15;16.20;99.90
9482;DHT22;4779;48.062;11.672;2023-05-07T06:48:42;16.40;99.90
9482;DHT22;4779;48.062;11.672;2023-05-07T06:51:10;16.40;99.90
9482;DHT22;4779;48.062;11.672;2023-05-07T06:53:37;16.60;99.90
9482;DHT22;4779;48.062;11.672;2023-05-07T06:56:04;16.60;99.90
9482;DHT22;4779;48.062;11.672;2023-05-07T06:58:31;16.70;99.90
9482;DHT22;4779;48.062;11.672;2023-05-07T07:00:58;16.80;99.90
9482;DHT22;4779;48.062;11.672;2023-05-07T07:03:25;17.00;99.90
9482;DHT22;4779;48.062;11.672;2023-05-07T07:05:52;17.10;99.90
9482;DHT22;4779;48.062;11.672;2023-05-07T07:08:22;17.20;99.90
9482;DHT22;4779;48.062;11.672;2023-05-07T07:10:49;17.30;99.90
9482;DHT22;4779;48.062;11.672;2023-05-07T07:13:15;17.40;99.90
9482;DHT22;4779;48.062;11.672;2023-05-07T07:15:43;17.50;99.90
9482;DHT22;4779;48.062;11.672;2023-05-07T07:18:10;17.70;99.90
9482;DHT22;4779;48.062;11.672;2023-05-07T07:20:37;17.90;99.90
9482;DHT22;4779;48.062;11.672;2023-05-07T07:23:05;18.00;99.90
9482;DHT22;4779;48.062;11.672;2023-05-07T07:25:33;18.10;99.90
9482;DHT22;4779;48.062;11.672;2023-05-07T07:28:00;18.20;99.90
9482;DHT22;4779;48.062;11.672;2023-05-07T07:30:27;18.30;99.90
9482;DHT22;4779;48.062;11.672;2023-05-07T07:32:54;18.40;99.90
9482;DHT22;4779;48.062;11.672;2023-05-07T07:35:25;18.50;99.90
9482;DHT22;4779;48.062;11.672;2023-05-07T07:37:52;18.60;99.90
9482;DHT22;4779;48.062;11.672;2023-05-07T07:40:19;18.70;99.90
9482;DHT22;4779;48.062;11.672;2023-05-07T07:42:48;18.80;99.90
9482;DHT22;4779;48.062;11.672;2023-05-07T07:45:14;18.90;99.90
9482;DHT22;4779;48.062;11.672;2023-05-07T07:47:41;18.90;99.90
9482;DHT22;4779;48.062;11.672;2023-05-07T07:50:09;18.90;99.90
9482;DHT22;4779;48.062;11.672;2023-05-07T07:52:36;19.00;99.90
9482;DHT22;4779;48.062;11.672;2023-05-07T07:55:04;19.00;99.90
9482;DHT22;4779;48.062;11.672;2023-05-07T07:57:31;19.00;99.90
9482;DHT22;4779;48.062;11.672;2023-05-07T07:59:59;19.00;99.90
9482;DHT22;4779;48.062;11.672;2023-05-07T08:02:26;19.00;99.90
9482;DHT22;4779;48.062;11.672;2023-05-07T08:04:53;19.10;99.90
9482;DHT22;4779;48.062;11.672;2023-05-07T08:07:20;19.10;99.90
9482;DHT22;4779;48.062;11.672;2023-05-07T08:09:48;19.10;99.90
9482;DHT22;4779;48.062;11.672;2023-05-07T08:12:15;19.10;99.90
9482;DHT22;4779;48.062;11.672;2023-05-07T08:14:42;19.20;99.90
9482;DHT22;4779;48.062;11.672;2023-05-07T08:17:10;19.30;99.90
9482;DHT22;4779;48.062;11.672;2023-05-07T08:19:37;19.30;99.90
9482;DHT22;4779;48.062;11.672;2023-05-07T08:22:04;19.40;99.90
9482;DHT22;4779;48.062;11.672;2023-05-07T08:24:32;19.60;99.90
9482;DHT22;4779;48.062;11.672;2023-05-07T08:26:59;19.70;99.90
9482;DHT22;4779;48.062;11.672;2023-05-07T08:29:26;19.90;99.90
9482;DHT22;4779;48.062;11.672;2023-05-07T08:31:52;20.00;99.90
9482;DHT22;4779;48.062;11.672;2023-05-07T08:34:22;20.10;99.90
9482;DHT22;4779;48.062;11.672;2023-05-07T08:36:49;20.30;99.90
9482;DHT22;4779;48.062;11.672;2023-05-07T08:39:16;20.30;99.90
9482;DHT22;4779;48.062;11.672;2023-05-07T08:41:45;20.40;99.90
9482;DHT22;4779;48.062;11.672;2023-05-07T08:44:13;20.50;99.90
9482;DHT22;4779;48.062;11.672;2023-05-07T08:46:41;20.60;99.90
9482;DHT22;4779;48.062;11.672;2023-05-07T08:49:09;20.60;99.90
9482;DHT22;4779;48.062;11.672;2023-05-07T08:51:37;20.60;99.90
9482;DHT22;4779;48.062;11.672;2023-05-07T08:54:04;20.70;99.90
9482;DHT22;4779;48.062;11.672;2023-05-07T08:56:32;20.80;99.90
9482;DHT22;4779;48.062;11.672;2023-05-07T08:58:59;20.90;99.90
9482;DHT22;4779;48.062;11.672;2023-05-07T09:01:26;21.00;99.90
9482;DHT22;4779;48.062;11.672;2023-05-07T09:03:53;21.10;99.90
9482;DHT22;4779;48.062;11.672;2023-05-07T09:06:20;21.20;99.90
9482;DHT22;4779;48.062;11.672;2023-05-07T09:08:53;21.50;99.90
9482;DHT22;4779;48.062;11.672;2023-05-07T09:11:20;21.80;99.90
9482;DHT22;4779;48.062;11.672;2023-05-07T09:13:48;22.10;99.90
9482;DHT22;4779;48.062;11.672;2023-05-07T09:16:15;22.20;99.90
9482;DHT22;4779;48.062;11.672;2023-05-07T09:18:43;22.40;99.90
9482;DHT22;4779;48.062;11.672;2023-05-07T09:21:11;22.60;99.50
9482;DHT22;4779;48.062;11.672;2023-05-07T09:23:38;22.80;99.90
9482;DHT22;4779;48.062;11.672;2023-05-07T09:26:06;22.90;99.60
9482;DHT22;4779;48.062;11.672;2023-05-07T09:28:38;23.20;99.40
9482;DHT22;4779;48.062;11.672;2023-05-07T09:31:06;23.30;98.30
9482;DHT22;4779;48.062;11.672;2023-05-07T09:33:33;23.20;97.80
9482;DHT22;4779;48.062;11.672;2023-05-07T09:36:02;23.20;98.00
9482;DHT22;4779;48.062;11.672;2023-05-07T09:38:30;23.40;97.10
9482;DHT22;4779;48.062;11.672;2023-05-07T09:41:04;23.20;96.40
9482;DHT22;4779;48.062;11.672;2023-05-07T09:43:33;23.40;97.30
9482;DHT22;4779;48.062;11.672;2023-05-07T09:46:03;23.50;95.40
9482;DHT22;4779;48.062;11.672;2023-05-07T09:48:36;23.70;93.70
9482;DHT22;4779;48.062;11.672;2023-05-07T09:51:10;23.90;94.90
9482;DHT22;4779;48.062;11.672;2023-05-07T09:53:38;24.20;95.30
9482;DHT22;4779;48.062;11.672;2023-05-07T09:56:06;24.40;95.80
9482;DHT22;4779;48.062;11.672;2023-05-07T09:58:37;24.50;95.00
9482;DHT22;4779;48.062;11.672;2023-05-07T10:01:04;24.80;95.00
9482;DHT22;4779;48.062;11.672;2023-05-07T10:03:33;24.60;94.40
9482;DHT22;4779;48.062;11.672;2023-05-07T10:06:02;24.70;94.30
9482;DHT22;4779;48.062;11.672;2023-05-07T10:08:30;24.80;94.40
9482;DHT22;4779;48.062;11.672;2023-05-07T10:10:58;24.80;92.10
9482;DHT22;4779;48.062;11.672;2023-05-07T10:13:26;25.00;92.50
9482;DHT22;4779;48.062;11.672;2023-05-07T10:15:55;25.00;90.60
9482;DHT22;4779;48.062;11.672;2023-05-07T10:18:22;25.10;93.30
9482;DHT22;4779;48.062;11.672;2023-05-07T10:20:56;25.30;92.00
9482;DHT22;4779;48.062;11.672;2023-05-07T10:23:27;25.40;92.00
9482;DHT22;4779;48.062;11.672;2023-05-07T10:25:55;25.60;92.80
9482;DHT22;4779;48.062;11.672;2023-05-07T10:28:24;25.70;92.70
9482;DHT22;4779;48.062;11.672;2023-05-07T10:31:05;25.60;91.00
9482;DHT22;4779;48.062;11.672;2023-05-07T10:33:34;25.70;91.50
9482;DHT22;4779;48.062;11.672;2023-05-07T10:36:02;25.80;93.00
9482;DHT22;4779;48.062;11.672;2023-05-07T10:38:31;25.50;91.60
9482;DHT22;4779;48.062;11.672;2023-05-07T10:40:58;25.40;93.50
9482;DHT22;4779;48.062;11.672;2023-05-07T10:43:25;25.40;92.90
9482;DHT22;4779;48.062;11.672;2023-05-07T10:46:13;25.20;92.60
9482;DHT22;4779;48.062;11.672;2023-05-07T10:49:09;25.00;93.10
9482;DHT22;4779;48.062;11.672;2023-05-07T10:51:37;25.00;93.10
9482;DHT22;4779;48.062;11.672;2023-05-07T10:54:22;25.00;93.20
9482;DHT22;4779;48.062;11.672;2023-05-07T10:56:52;25.20;94.20
9482;DHT22;4779;48.062;11.672;2023-05-07T10:59:40;25.10;93.80
9482;DHT22;4779;48.062;11.672;2023-05-07T11:02:11;25.00;92.90
9482;DHT22;4779;48.062;11.672;2023-05-07T11:04:40;25.20;93.80
9482;DHT22;4779;48.062;11.672;2023-05-07T11:07:24;25.40;92.60
9482;DHT22;4779;48.062;11.672;2023-05-07T11:10:02;25.40;93.40
9482;DHT22;4779;48.062;11.672;2023-05-07T11:12:54;25.50;92.90
9482;DHT22;4779;48.062;11.672;2023-05-07T11:15:48;25.50;91.40
9482;DHT22;4779;48.062;11.672;2023-05-07T11:18:17;25.50;91.20
9482;DHT22;4779;48.062;11.672;2023-05-07T11:20:55;25.30;92.50
9482;DHT22;4779;48.062;11.672;2023-05-07T11:26:46;24.90;92.30
9482;DHT22;4779;48.062;11.672;2023-05-07T11:29:15;24.80;91.80
9482;DHT22;4779;48.062;11.672;2023-05-07T11:31:42;24.70;93.30
9482;DHT22;4779;48.062;11.672;2023-05-07T11:34:11;24.60;92.30
9482;DHT22;4779;48.062;11.672;2023-05-07T11:36:42;24.40;91.70
9482;DHT22;4779;48.062;11.672;2023-05-07T11:39:27;24.30;92.60
9482;DHT22;4779;48.062;11.672;2023-05-07T11:41:54;24.40;93.10
9482;DHT22;4779;48.062;11.672;2023-05-07T11:44:21;24.60;94.70
9482;DHT22;4779;48.062;11.672;2023-05-07T11:46:48;24.60;93.00
9482;DHT22;4779;48.062;11.672;2023-05-07T11:49:17;24.80;93.70
9482;DHT22;4779;48.062;11.672;2023-05-07T11:51:44;25.00;93.00
9482;DHT22;4779;48.062;11.672;2023-05-07T11:54:15;25.20;93.10
9482;DHT22;4779;48.062;11.672;2023-05-07T11:56:44;25.50;93.50
9482;DHT22;4779;48.062;11.672;2023-05-07T11:59:16;25.70;93.30
9482;DHT22;4779;48.062;11.672;2023-05-07T12:01:45;25.80;93.20
9482;DHT22;4779;48.062;11.672;2023-05-07T12:04:12;25.90;92.20
9482;DHT22;4779;48.062;11.672;2023-05-07T12:06:40;26.10;93.50
9482;DHT22;4779;48.062;11.672;2023-05-07T12:09:07;26.20;90.90
9482;DHT22;4779;48.062;11.672;2023-05-07T12:11:37;26.10;92.00
9482;DHT22;4779;48.062;11.672;2023-05-07T12:14:05;26.10;92.00
9482;DHT22;4779;48.062;11.672;2023-05-07T12:16:32;26.00;91.70
9482;DHT22;4779;48.062;11.672;2023-05-07T12:18:59;26.00;90.20
9482;DHT22;4779;48.062;11.672;2023-05-07T12:21:26;26.10;91.80
9482;DHT22;4779;48.062;11.672;2023-05-07T12:23:55;26.10;91.20
9482;DHT22;4779;48.062;11.672;2023-05-07T12:26:22;25.80;91.00
9482;DHT22;4779;48.062;11.672;2023-05-07T12:28:50;25.90;92.40
9482;DHT22;4779;48.062;11.672;2023-05-07T12:31:17;25.80;91.30
9482;DHT22;4779;48.062;11.672;2023-05-07T12:33:44;25.50;91.90
9482;DHT22;4779;48.062;11.672;2023-05-07T12:36:12;25.30;92.40
9482;DHT22;4779;48.062;11.672;2023-05-07T12:38:39;25.30;92.90
9482;DHT22;4779;48.062;11.672;2023-05-07T12:41:09;25.10;91.50
9482;DHT22;4779;48.062;11.672;2023-05-07T12:43:38;25.30;92.30
9482;DHT22;4779;48.062;11.672;2023-05-07T12:46:06;25.40;91.90
9482;DHT22;4779;48.062;11.672;2023-05-07T12:48:35;25.40;92.20
9482;DHT22;4779;48.062;11.672;2023-05-07T12:51:02;25.50;91.30
9482;DHT22;4779;48.062;11.672;2023-05-07T12:53:30;25.30;91.50
9482;DHT22;4779;48.062;11.672;2023-05-07T12:55:58;25.20;91.80
9482;DHT22;4779;48.062;11.672;2023-05-07T12:58:28;25.20;91.80
9482;DHT22;4779;48.062;11.672;2023-05-07T13:00:56;25.00;90.70
9482;DHT22;4779;48.062;11.672;2023-05-07T13:03:26;25.00;91.90
9482;DHT22;4779;48.062;11.672;2023-05-07T13:05:54;25.20;92.00
9482;DHT22;4779;48.062;11.672;2023-05-07T13:08:30;25.20;91.30
9482;DHT22;4779;48.062;11.672;2023-05-07T13:10:58;25.30;92.10
9482;DHT22;4779;48.062;11.672;2023-05-07T13:13:30;25.30;91.80
9482;DHT22;4779;48.062;11.672;2023-05-07T13:15:57;25.20;91.60
9482;DHT22;4779;48.062;11.672;2023-05-07T13:18:25;24.90;91.30
9482;DHT22;4779;48.062;11.672;2023-05-07T13:20:52;24.80;92.40
9482;DHT22;4779;48.062;11.672;2023-05-07T13:23:19;24.70;91.50
9482;DHT22;4779;48.062;11.672;2023-05-07T13:25:46;24.60;92.70
9482;DHT22;4779;48.062;11.672;2023-05-07T13:28:13;24.60;92.20
9482;DHT22;4779;48.062;11.672;2023-05-07T13:30:41;24.40;91.80
9482;DHT22;4779;48.062;11.672;2023-05-07T13:33:08;24.30;92.60
9482;DHT22;4779;48.062;11.672;2023-05-07T13:35:35;24.20;92.20
9482;DHT22;4779;48.062;11.672;2023-05-07T13:38:03;24.20;92.70
9482;DHT22;4779;48.062;11.672;2023-05-07T13:40:30;24.30;92.30
9482;DHT22;4779;48.062;11.672;2023-05-07T13:42:58;24.40;90.80
9482;DHT22;4779;48.062;11.672;2023-05-07T13:45:26;24.40;92.00
9482;DHT22;4779;48.062;11.672;2023-05-07T13:47:56;24.50;92.10
9482;DHT22;4779;48.062;11.672;2023-05-07T13:50:23;24.50;92.20
9482;DHT22;4779;48.062;11.672;2023-05-07T13:52:52;24.30;92.10
9482;DHT22;4779;48.062;11.672;2023-05-07T13:55:20;24.10;91.40
9482;DHT22;4779;48.062;11.672;2023-05-07T13:57:47;23.80;91.30
9482;DHT22;4779;48.062;11.672;2023-05-07T14:00:14;23.60;91.60
9482;DHT22;4779;48.062;11.672;2023-05-07T14:02:41;23.40;91.70
9482;DHT22;4779;48.062;11.672;2023-05-07T14:05:10;23.30;92.60
9482;DHT22;4779;48.062;11.672;2023-05-07T14:07:39;23.20;92.60
9482;DHT22;4779;48.062;11.672;2023-05-07T14:10:06;23.20;92.80
9482;DHT22;4779;48.062;11.672;2023-05-07T14:12:33;23.10;93.40
9482;DHT22;4779;48.062;11.672;2023-05-07T14:15:00;23.10;92.60
9482;DHT22;4779;48.062;11.672;2023-05-07T14:17:27;23.20;92.90
9482;DHT22;4779;48.062;11.672;2023-05-07T14:19:54;23.10;93.40
9482;DHT22;4779;48.062;11.672;2023-05-07T14:22:23;23.10;92.20
9482;DHT22;4779;48.062;11.672;2023-05-07T14:24:50;23.10;92.20
9482;DHT22;4779;48.062;11.672;2023-05-07T14:27:17;23.00;93.00
9482;DHT22;4779;48.062;11.672;2023-05-07T14:29:44;22.80;92.70
9482;DHT22;4779;48.062;11.672;2023-05-07T14:32:16;22.70;93.10
9482;DHT22;4779;48.062;11.672;2023-05-07T14:34:43;22.70;92.60
9482;DHT22;4779;48.062;11.672;2023-05-07T14:37:10;22.60;93.00
9482;DHT22;4779;48.062;11.672;2023-05-07T14:39:38;22.50;92.80
9482;DHT22;4779;48.062;11.672;2023-05-07T14:42:05;22.40;92.80
9482;DHT22;4779;48.062;11.672;2023-05-07T14:44:33;22.40;92.90
9482;DHT22;4779;48.062;11.672;2023-05-07T14:47:00;22.30;93.20
9482;DHT22;4779;48.062;11.672;2023-05-07T14:49:27;22.30;92.80
9482;DHT22;4779;48.062;11.672;2023-05-07T14:51:54;22.30;94.00
9482;DHT22;4779;48.062;11.672;2023-05-07T14:54:23;22.20;92.70
9482;DHT22;4779;48.062;11.672;2023-05-07T14:56:51;22.20;93.40
9482;DHT22;4779;48.062;11.672;2023-05-07T14:59:19;22.10;93.70
9482;DHT22;4779;48.062;11.672;2023-05-07T15:01:46;22.10;94.00
9482;DHT22;4779;48.062;11.672;2023-05-07T15:04:14;22.00;93.30
9482;DHT22;4779;48.062;11.672;2023-05-07T15:06:41;21.90;94.40
9482;DHT22;4779;48.062;11.672;2023-05-07T15:09:07;21.90;93.50
9482;DHT22;4779;48.062;11.672;2023-05-07T15:11:35;21.90;93.30
9482;DHT22;4779;48.062;11.672;2023-05-07T15:14:03;21.80;93.20
9482;DHT22;4779;48.062;11.672;2023-05-07T15:16:30;21.80;94.20
9482;DHT22;4779;48.062;11.672;2023-05-07T15:18:58;21.80;93.40
9482;DHT22;4779;48.062;11.672;2023-05-07T15:21:25;21.70;93.70
9482;DHT22;4779;48.062;11.672;2023-05-07T15:23:52;21.90;94.00
9482;DHT22;4779;48.062;11.672;2023-05-07T15:26:20;22.10;93.40
9482;DHT22;4779;48.062;11.672;2023-05-07T15:28:47;22.30;93.30
9482;DHT22;4779;48.062;11.672;2023-05-07T15:31:15;22.50;92.60
9482;DHT22;4779;48.062;11.672;2023-05-07T15:33:42;22.60;92.60
9482;DHT22;4779;48.062;11.672;2023-05-07T15:36:10;22.60;92.30
9482;DHT22;4779;48.062;11.672;2023-05-07T15:38:37;22.60;92.30
9482;DHT22;4779;48.062;11.672;2023-05-07T15:41:04;22.40;92.80
9482;DHT22;4779;48.062;11.672;2023-05-07T15:43:30;22.30;92.40
9482;DHT22;4779;48.062;11.672;2023-05-07T15:45:57;22.20;92.70
9482;DHT22;4779;48.062;11.672;2023-05-07T15:48:27;22.00;92.80
9482;DHT22;4779;48.062;11.672;2023-05-07T15:50:54;21.90;92.50
9482;DHT22;4779;48.062;11.672;2023-05-07T15:53:21;21.80;92.50